Time;durP1;ratioP1;P1;durP2;ratioP2;P2;SDS_P1;SDS_P2;PMS_P1;PMS_P2;Temp;Humidity;BMP_temperature;BMP_pressure;BME280_temperature;BME280_humidity;BME280_pressure;Samples;Min_cycle;Max_cycle;Signal;HPM_P1;HPM_P2
2023/04/11 00:00:20;;;;;;;15.87;11.40;;;;;;;7.33;100.00;94398.75;5110896;28;20663;-77
2023/04/11 00:02:47;;;;;;;17.93;12.40;;;;;;;7.31;100.00;94395.56;5111175;28;20738;-77
2023/04/11 00:05:15;;;;;;;18.60;12.60;;;;;;;7.28;100.00;94388.22;5111082;28;20189;-76
2023/04/11 00:07:43;;;;;;;16.60;11.50;;;;;;;7.26;100.00;94385.06;5110869;28;20223;-77
2023/04/11 00:10:10;;;;;;;16.47;10.77;;;;;;;7.30;100.00;94384.44;5111181;28;20195;-76
2023/04/11 00:12:37;;;;;;;18.20;11.77;;;;;;;7.25;100.00;94386.84;5110834;28;20192;-76
2023/04/11 00:15:05;;;;;;;16.60;11.70;;;;;;;7.22;100.00;94387.25;5111198;28;20269;-76
2023/04/11 00:17:31;;;;;;;18.23;11.90;;;;;;;7.16;100.00;94377.72;5105728;28;20212;-76
2023/04/11 00:20:00;;;;;;;17.60;12.03;;;;;;;7.05;100.00;94367.22;5111686;28;20566;-76
2023/04/11 00:22:27;;;;;;;17.93;12.70;;;;;;;7.07;100.00;94380.75;5110829;28;20212;-78
2023/04/11 00:24:55;;;;;;;17.77;11.70;;;;;;;6.97;100.00;94376.00;5110473;28;20199;-79
2023/04/11 00:27:22;;;;;;;16.47;11.37;;;;;;;6.96;100.00;94379.56;5111271;28;20196;-76
2023/04/11 00:29:49;;;;;;;17.33;11.90;;;;;;;6.89;100.00;94378.78;5111682;28;20188;-78
2023/04/11 00:32:16;;;;;;;18.37;12.17;;;;;;;6.82;100.00;94372.84;5111127;28;20216;-78
2023/04/11 00:34:42;;;;;;;17.80;12.47;;;;;;;6.75;100.00;94372.84;5110786;28;20200;-77
2023/04/11 00:37:09;;;;;;;18.53;11.70;;;;;;;6.74;100.00;94368.69;5111026;28;20541;-77
2023/04/11 00:39:37;;;;;;;17.93;12.53;;;;;;;6.72;100.00;94364.72;5109861;28;20610;-78
2023/04/11 00:42:06;;;;;;;18.77;11.83;;;;;;;6.68;100.00;94360.94;5109911;28;20219;-78
2023/04/11 00:44:34;;;;;;;18.67;12.60;;;;;;;6.68;100.00;94359.16;5110335;28;20662;-77
2023/04/11 00:47:02;;;;;;;18.00;11.87;;;;;;;6.71;100.00;94371.66;5111174;28;20195;-77
2023/04/11 00:49:30;;;;;;;18.53;12.43;;;;;;;6.59;100.00;94351.81;5110466;28;20218;-77
2023/04/11 00:51:58;;;;;;;19.97;12.70;;;;;;;6.56;100.00;94365.94;5110801;28;20187;-77
2023/04/11 00:54:28;;;;;;;17.60;11.97;;;;;;;6.57;100.00;94364.94;5110840;28;20241;-78
2023/04/11 00:56:58;;;;;;;20.27;12.43;;;;;;;6.52;100.00;94367.31;5106090;28;20209;-76
2023/04/11 00:59:27;;;;;;;17.23;11.40;;;;;;;6.43;100.00;94363.38;5110019;28;20200;-76
2023/04/11 01:01:54;;;;;;;18.13;11.63;;;;;;;6.39;100.00;94367.31;5107372;28;20196;-76
2023/04/11 01:04:21;;;;;;;17.73;12.00;;;;;;;6.34;100.00;94359.41;5110216;28;20199;-76
2023/04/11 01:06:51;;;;;;;16.43;11.73;;;;;;;6.43;100.00;94357.41;5110066;28;20191;-76
2023/04/11 01:09:20;;;;;;;18.37;11.93;;;;;;;6.29;100.00;94349.66;5110914;28;20650;-76
2023/04/11 01:11:47;;;;;;;19.00;11.77;;;;;;;6.48;100.00;94365.34;5111418;28;20196;-77
2023/04/11 01:14:15;;;;;;;18.20;12.60;;;;;;;6.47;100.00;94367.13;5111136;28;20203;-76
2023/04/11 01:16:45;;;;;;;18.77;11.83;;;;;;;6.47;100.00;94369.69;5111278;28;20192;-77
2023/04/11 01:19:16;;;;;;;18.70;11.70;;;;;;;6.59;100.00;94369.88;5108351;28;20673;-76
2023/04/11 01:21:44;;;;;;;18.50;12.40;;;;;;;6.61;100.00;94373.09;5111231;28;20180;-76
2023/04/11 01:24:12;;;;;;;18.30;11.97;;;;;;;6.58;100.00;94376.06;5110830;28;20188;-77
2023/04/11 01:26:39;;;;;;;18.97;12.57;;;;;;;6.59;100.00;94364.72;5111180;28;20203;-77
2023/04/11 01:29:06;;;;;;;17.87;12.13;;;;;;;6.67;100.00;94377.41;5111267;28;20212;-77
2023/04/11 01:31:33;;;;;;;20.67;13.53;;;;;;;6.60;100.00;94374.06;5111101;28;20195;-78
2023/04/11 01:34:00;;;;;;;17.97;12.07;;;;;;;6.44;100.00;94359.78;5110883;28;20188;-77
2023/04/11 01:36:28;;;;;;;20.07;13.07;;;;;;;6.49;100.00;94364.34;5111101;28;20196;-78
2023/04/11 01:38:55;;;;;;;18.53;12.27;;;;;;;6.46;100.00;94362.97;5110784;28;20184;-78
2023/04/11 01:41:26;;;;;;;19.83;12.57;;;;;;;6.44;100.00;94364.94;5110729;28;20625;-77
2023/04/11 01:43:53;;;;;;;19.50;12.63;;;;;;;6.48;100.00;94366.13;5108308;28;20340;-77
2023/04/11 01:46:22;;;;;;;18.70;12.17;;;;;;;6.47;100.00;94361.97;5110685;28;20200;-77
2023/04/11 01:48:49;;;;;;;20.63;12.47;;;;;;;6.47;100.00;94356.78;5110852;28;20227;-77
2023/04/11 01:51:16;;;;;;;18.93;12.70;;;;;;;6.42;100.00;94355.81;5111032;28;20198;-76
2023/04/11 01:53:44;;;;;;;20.20;12.10;;;;;;;6.42;100.00;94354.03;5110600;28;20192;-76
2023/04/11 01:56:12;;;;;;;20.13;13.10;;;;;;;6.51;100.00;94354.63;5108033;28;20198;-78
2023/04/11 01:58:41;;;;;;;20.13;13.30;;;;;;;6.55;100.00;94351.41;5110368;28;20677;-77
2023/04/11 02:01:07;;;;;;;18.27;12.27;;;;;;;6.40;100.00;94337.97;5110687;28;20215;-78
2023/04/11 02:03:35;;;;;;;20.57;13.20;;;;;;;6.46;100.00;94350.06;5110727;28;20571;-77
2023/04/11 02:06:02;;;;;;;21.37;13.40;;;;;;;6.48;100.00;94347.28;5110394;28;20192;-77
2023/04/11 02:08:29;;;;;;;19.20;13.30;;;;;;;6.37;100.00;94337.56;5109387;28;20206;-77
2023/04/11 02:10:56;;;;;;;20.53;13.57;;;;;;;6.28;100.00;94342.94;5109895;28;20189;-77
2023/04/11 02:13:22;;;;;;;21.07;13.90;;;;;;;6.37;100.00;94348.69;5114294;28;20199;-77
2023/04/11 02:15:51;;;;;;;20.63;13.37;;;;;;;6.30;100.00;94350.44;5114736;28;20199;-77
2023/04/11 02:18:17;;;;;;;20.63;14.23;;;;;;;6.26;100.00;94351.84;5113894;28;20204;-77
2023/04/11 02:20:44;;;;;;;21.87;13.50;;;;;;;6.28;100.00;94355.81;5114164;28;20914;-77
2023/04/11 02:23:11;;;;;;;21.13;13.03;;;;;;;6.24;100.00;94344.31;5113466;28;20566;-77
2023/04/11 02:25:38;;;;;;;22.03;14.30;;;;;;;6.18;100.00;94350.25;5113533;28;20260;-75
2023/04/11 02:28:05;;;;;;;27.53;16.53;;;;;;;6.28;100.00;94350.66;5114129;28;20654;-75
2023/04/11 02:30:32;;;;;;;28.73;18.13;;;;;;;6.26;100.00;94349.28;5113992;28;20192;-75
2023/04/11 02:33:00;;;;;;;40.07;25.00;;;;;;;6.33;100.00;94349.25;5114286;28;20188;-76
2023/04/11 02:35:27;;;;;;;39.70;24.60;;;;;;;6.27;100.00;94351.66;5114206;28;20332;-75
2023/04/11 02:37:54;;;;;;;26.53;16.30;;;;;;;6.23;100.00;94347.09;5113984;28;20260;-76
2023/04/11 02:40:20;;;;;;;27.03;16.10;;;;;;;6.20;100.00;94344.91;5113911;28;20195;-77
2023/04/11 02:42:47;;;;;;;24.07;15.63;;;;;;;6.21;100.00;94351.63;5114189;28;20216;-77
2023/04/11 02:45:14;;;;;;;24.70;14.67;;;;;;;6.09;100.00;94341.13;5113911;28;20187;-76
2023/04/11 02:47:41;;;;;;;23.03;15.00;;;;;;;6.31;100.00;94348.66;5113502;28;20196;-77
2023/04/11 02:50:10;;;;;;;25.73;15.33;;;;;;;6.33;100.00;94333.78;5113170;28;20219;-79
2023/04/11 02:52:38;;;;;;;23.73;15.50;;;;;;;6.27;100.00;94337.94;5114235;28;20188;-80
2023/04/11 02:55:05;;;;;;;25.73;15.93;;;;;;;6.35;100.00;94339.56;5114336;28;20192;-79
2023/04/11 02:57:32;;;;;;;26.57;17.03;;;;;;;6.42;100.00;94341.13;5113227;28;20549;-79
2023/04/11 02:59:59;;;;;;;28.23;17.20;;;;;;;6.47;100.00;94336.16;5114031;28;20725;-79
2023/04/11 03:02:28;;;;;;;25.07;15.63;;;;;;;6.51;100.00;94341.72;5113654;28;20192;-79
2023/04/11 03:04:55;;;;;;;25.30;16.00;;;;;;;6.55;100.00;94337.75;5109990;28;20248;-79
2023/04/11 03:07:25;;;;;;;28.00;16.73;;;;;;;6.48;100.00;94321.47;5112299;28;20200;-80
2023/04/11 03:09:52;;;;;;;28.53;16.77;;;;;;;6.47;100.00;94332.75;5102893;28;20196;-79
2023/04/11 03:12:19;;;;;;;27.97;17.07;;;;;;;6.49;100.00;94335.97;5113833;28;20666;-79
2023/04/11 03:14:46;;;;;;;26.73;16.23;;;;;;;6.39;100.00;94331.19;5113612;28;21617;-80
2023/04/11 03:17:13;;;;;;;29.00;17.77;;;;;;;6.41;100.00;94334.34;5110485;28;20605;-79
2023/04/11 03:19:40;;;;;;;28.40;17.53;;;;;;;6.43;100.00;94340.13;5114857;27;20199;-79
2023/04/11 03:22:07;;;;;;;27.37;17.23;;;;;;;6.49;100.00;94339.34;5112211;28;20205;-79
2023/04/11 03:24:35;;;;;;;26.47;16.67;;;;;;;6.50;100.00;94328.00;5112216;28;20211;-79
2023/04/11 03:27:02;;;;;;;27.97;17.13;;;;;;;6.49;100.00;94329.03;5112909;28;20673;-80
2023/04/11 03:29:28;;;;;;;29.63;18.17;;;;;;;6.58;100.00;94329.59;5112509;28;20322;-79
2023/04/11 03:31:55;;;;;;;24.70;16.53;;;;;;;6.62;100.00;94334.16;5112171;28;20640;-79
2023/04/11 03:34:22;;;;;;;24.83;16.60;;;;;;;6.57;100.00;94331.38;5112062;28;20262;-79
2023/04/11 03:36:49;;;;;;;25.47;16.40;;;;;;;6.50;100.00;94332.38;5112517;28;20191;-79
2023/04/11 03:39:16;;;;;;;31.73;16.73;;;;;;;6.41;100.00;94330.97;5112597;28;20195;-79
2023/04/11 03:41:45;;;;;;;27.83;17.30;;;;;;;6.40;100.00;94335.38;5112985;28;20261;-79
2023/04/11 03:44:11;;;;;;;25.03;16.20;;;;;;;6.11;100.00;94328.03;5112607;28;20217;-78
2023/04/11 03:46:38;;;;;;;27.27;16.50;;;;;;;6.15;100.00;94332.59;5113132;28;20201;-78
2023/04/11 03:49:05;;;;;;;29.47;17.43;;;;;;;6.19;100.00;94327.84;5112057;28;20230;-79
2023/04/11 03:51:32;;;;;;;29.20;17.87;;;;;;;6.07;100.00;94335.38;5109500;28;20289;-79
2023/04/11 03:53:59;;;;;;;32.97;19.60;;;;;;;5.99;100.00;94333.00;5112140;28;20191;-79
2023/04/11 03:56:26;;;;;;;28.60;17.20;;;;;;;5.91;100.00;94333.19;5111361;28;20579;-78
2023/04/11 03:58:54;;;;;;;33.23;19.13;;;;;;;5.98;100.00;94333.97;5106290;28;20198;-78
2023/04/11 04:01:20;;;;;;;31.07;18.57;;;;;;;6.08;100.00;94326.66;5112593;28;20260;-78
2023/04/11 04:03:47;;;;;;;41.90;20.07;;;;;;;6.15;100.00;94324.06;5111448;28;20214;-78
2023/04/11 04:06:14;;;;;;;32.70;20.40;;;;;;;6.24;100.00;94330.59;5112363;28;20194;-79
2023/04/11 04:08:41;;;;;;;35.33;21.30;;;;;;;6.24;100.00;94336.56;5112711;28;20560;-79
2023/04/11 04:11:07;;;;;;;30.27;18.53;;;;;;;6.13;100.00;94328.63;5112631;28;20582;-79
2023/04/11 04:13:34;;;;;;;33.00;19.37;;;;;;;6.02;100.00;94342.91;5112814;28;20199;-85
2023/04/11 04:16:03;;;;;;;29.83;18.93;;;;;;;5.99;100.00;94340.72;5113105;28;20213;-83
2023/04/11 04:18:30;;;;;;;29.43;18.53;;;;;;;5.91;100.00;94346.09;5111991;28;20211;-82
2023/04/11 04:20:59;;;;;;;28.30;17.50;;;;;;;5.82;100.00;94333.53;5112540;28;20199;-83
2023/04/11 04:23:26;;;;;;;29.60;18.40;;;;;;;5.86;100.00;94325.22;5112031;28;20621;-83
2023/04/11 04:25:53;;;;;;;30.70;17.57;;;;;;;5.84;100.00;94331.53;5112432;28;20715;-81
2023/04/11 04:28:21;;;;;;;32.60;18.93;;;;;;;5.68;100.00;94323.19;5112537;28;20201;-82
2023/04/11 04:30:52;;;;;;;31.00;18.77;;;;;;;5.64;100.00;94319.44;5112048;28;20225;-79
2023/04/11 04:33:25;;;;;;;33.13;19.53;;;;;;;5.48;100.00;94308.69;5111434;28;20187;-79
2023/04/11 04:35:58;;;;;;;29.63;18.63;;;;;;;5.65;100.00;94323.63;5111562;27;20195;-79
2023/04/11 04:38:27;;;;;;;34.33;20.20;;;;;;;5.63;100.00;94323.00;5111760;28;20204;-79
2023/04/11 04:40:54;;;;;;;32.47;19.67;;;;;;;5.63;100.00;94330.72;5109414;28;20229;-80
2023/04/11 04:43:23;;;;;;;32.47;19.67;;;;;;;5.56;100.00;94318.81;5111961;28;20264;-80
2023/04/11 04:45:50;;;;;;;33.57;19.63;;;;;;;5.53;100.00;94322.59;5112038;28;20198;-81
2023/04/11 04:48:17;;;;;;;34.53;20.17;;;;;;;5.48;100.00;94308.69;5111493;28;20191;-80
2023/04/11 04:50:45;;;;;;;32.80;19.40;;;;;;;5.55;100.00;94320.59;5112006;28;20195;-80
2023/04/11 04:53:12;;;;;;;32.53;19.30;;;;;;;5.54;100.00;94323.38;5111700;28;20187;-79
2023/04/11 04:55:39;;;;;;;32.50;18.70;;;;;;;5.44;100.00;94313.44;5110670;28;20199;-76
2023/04/11 04:58:06;;;;;;;36.20;19.10;;;;;;;5.54;100.00;94316.44;5110763;28;20190;-76
2023/04/11 05:00:33;;;;;;;31.50;19.07;;;;;;;5.58;100.00;94317.63;5107263;28;20193;-77
2023/04/11 05:03:04;;;;;;;31.50;18.70;;;;;;;5.64;100.00;94310.91;5105010;28;20567;-78
2023/04/11 05:05:31;;;;;;;32.27;19.83;;;;;;;5.73;100.00;94320.03;5106869;28;20287;-77
2023/04/11 05:07:59;;;;;;;35.53;20.73;;;;;;;5.70;100.00;94317.84;5110707;28;20688;-77
2023/04/11 05:10:26;;;;;;;32.27;19.57;;;;;;;5.66;100.00;94316.66;5105930;28;20198;-77
2023/04/11 05:12:54;;;;;;;34.20;18.80;;;;;;;5.64;100.00;94313.47;5106082;28;20199;-76
2023/04/11 05:15:22;;;;;;;31.27;19.23;;;;;;;5.65;100.00;94312.50;5110361;28;20609;-75
2023/04/11 05:17:49;;;;;;;31.97;19.90;;;;;;;5.65;100.00;94304.78;5110319;28;20584;-75
2023/04/11 05:20:16;;;;;;;33.27;18.97;;;;;;;5.71;100.00;94315.06;5107923;28;20279;-76
2023/04/11 05:22:43;;;;;;;33.50;19.73;;;;;;;5.70;100.00;94310.13;5110307;28;20196;-76
2023/04/11 05:25:11;;;;;;;32.17;18.50;;;;;;;5.68;100.00;94314.69;5110208;28;20206;-77
2023/04/11 05:27:38;;;;;;;30.67;19.40;;;;;;;5.67;100.00;94318.25;5110252;28;20199;-76
2023/04/11 05:30:06;;;;;;;31.93;18.63;;;;;;;5.83;100.00;94309.34;5108146;28;20215;-76
2023/04/11 05:32:33;;;;;;;33.37;19.40;;;;;;;5.96;100.00;94315.34;5104759;28;20200;-77
2023/04/11 05:34:59;;;;;;;31.83;19.50;;;;;;;5.98;100.00;94315.13;5110262;28;20194;-77
2023/04/11 05:37:26;;;;;;;32.57;19.03;;;;;;;5.90;100.00;94310.16;5110920;28;20201;-77
2023/04/11 05:39:55;;;;;;;32.07;18.47;;;;;;;5.92;100.00;94311.56;5108860;28;20199;-77
2023/04/11 05:42:23;;;;;;;30.40;18.23;;;;;;;5.90;100.00;94310.97;5109398;28;20689;-77
2023/04/11 05:44:50;;;;;;;28.73;18.10;;;;;;;5.98;100.00;94315.94;5109950;28;20220;-77
2023/04/11 05:47:16;;;;;;;30.53;18.23;;;;;;;6.05;100.00;94306.41;5112149;28;20205;-77
2023/04/11 05:49:43;;;;;;;29.77;18.60;;;;;;;6.18;100.00;94301.25;5113910;28;20239;-80
2023/04/11 05:52:10;;;;;;;29.30;17.93;;;;;;;6.32;100.00;94301.25;5111021;28;20198;-76
2023/04/11 05:54:37;;;;;;;28.17;17.70;;;;;;;6.33;100.00;94297.66;5114024;28;20187;-76
2023/04/11 05:57:06;;;;;;;28.57;18.10;;;;;;;6.38;100.00;94296.06;5113707;28;20208;-76
2023/04/11 05:59:34;;;;;;;28.27;17.47;;;;;;;6.45;100.00;94302.00;5109448;28;20187;-76
2023/04/11 06:02:01;;;;;;;25.87;16.03;;;;;;;6.41;100.00;94292.28;5111766;28;20252;-76
2023/04/11 06:04:28;;;;;;;28.80;17.20;;;;;;;6.66;100.00;94306.16;5112767;28;20215;-75
2023/04/11 06:06:55;;;;;;;29.50;17.07;;;;;;;6.59;100.00;94292.44;5114159;28;20203;-77
2023/04/11 06:09:24;;;;;;;25.33;15.80;;;;;;;6.64;100.00;94288.25;5113506;28;20204;-75
2023/04/11 06:11:50;;;;;;;26.20;16.50;;;;;;;6.74;100.00;94290.44;5112539;28;20192;-75
2023/04/11 06:14:17;;;;;;;26.03;15.67;;;;;;;6.84;100.00;94291.56;5113006;28;20195;-76
2023/04/11 06:16:45;;;;;;;26.00;16.50;;;;;;;6.82;100.00;94285.84;5114637;28;20199;-76
2023/04/11 06:19:12;;;;;;;22.03;15.60;;;;;;;6.91;100.00;94288.97;5108420;28;20198;-75
2023/04/11 06:21:39;;;;;;;23.60;15.70;;;;;;;6.93;100.00;94281.00;5112916;28;20577;-76
2023/04/11 06:24:09;;;;;;;24.27;15.90;;;;;;;6.97;100.00;94287.38;5112741;28;20618;-76
2023/04/11 06:26:36;;;;;;;23.17;14.67;;;;;;;7.06;100.00;94289.53;5110711;28;20251;-75
2023/04/11 06:29:05;;;;;;;26.63;15.60;;;;;;;7.13;100.00;94290.28;5110486;28;20192;-75
2023/04/11 06:31:32;;;;;;;25.23;17.07;;;;;;;7.20;100.00;94280.72;5113437;28;20597;-76
2023/04/11 06:34:00;;;;;;;24.83;16.77;;;;;;;7.28;100.00;94279.66;5113649;28;20184;-75
2023/04/11 06:36:27;;;;;;;23.90;14.07;;;;;;;7.33;100.00;94269.53;5113911;28;20631;-75
2023/04/11 06:38:54;;;;;;;21.87;14.60;;;;;;;7.22;100.00;94275.31;5108574;28;20199;-79
2023/04/11 06:41:24;;;;;;;24.93;14.17;;;;;;;7.23;100.00;94276.91;5110961;28;20249;-76
2023/04/11 06:43:51;;;;;;;20.40;13.90;;;;;;;7.30;100.00;94275.13;5111263;28;20227;-76
2023/04/11 06:46:17;;;;;;;22.77;14.07;;;;;;;7.38;100.00;94277.44;5113348;28;20200;-75
2023/04/11 06:48:44;;;;;;;22.77;14.50;;;;;;;7.46;100.00;94256.50;5112018;28;20272;-76
2023/04/11 06:51:12;;;;;;;19.43;12.50;;;;;;;7.49;100.00;94268.22;5110552;27;20200;-76
2023/04/11 06:53:39;;;;;;;20.27;13.10;;;;;;;7.48;100.00;94266.63;5112587;28;20668;-77
2023/04/11 06:56:07;;;;;;;17.87;12.03;;;;;;;7.48;100.00;94266.63;5112687;28;20196;-75
2023/04/11 06:58:34;;;;;;;19.87;13.17;;;;;;;7.55;100.00;94272.56;5108677;28;20199;-77
2023/04/11 07:01:01;;;;;;;18.23;12.67;;;;;;;7.58;100.00;94266.97;5111543;28;20227;-78
2023/04/11 07:03:29;;;;;;;20.67;13.50;;;;;;;7.63;100.00;94274.91;5112711;28;20200;-78
2023/04/11 07:05:56;;;;;;;19.17;11.93;;;;;;;7.66;100.00;94277.88;5113176;27;20212;-77
2023/04/11 07:08:24;;;;;;;19.33;12.93;;;;;;;7.66;100.00;94272.69;5110716;28;20240;-77
2023/04/11 07:10:51;;;;;;;19.80;13.67;;;;;;;7.72;100.00;94263.31;5107368;28;20200;-76
2023/04/11 07:13:19;;;;;;;22.47;14.33;;;;;;;7.88;100.00;94278.28;5113106;28;20188;-78
2023/04/11 07:15:46;;;;;;;28.43;14.80;;;;;;;7.97;100.00;94275.25;5112805;28;20196;-78
2023/04/11 07:18:13;;;;;;;21.73;13.47;;;;;;;8.11;100.00;94275.16;5112198;28;20256;-77
2023/04/11 07:20:40;;;;;;;21.87;13.00;;;;;;;8.09;100.00;94275.34;5110269;28;20582;-76
2023/04/11 07:23:06;;;;;;;21.13;12.77;;;;;;;8.17;100.00;94282.84;5112935;28;20256;-77
2023/04/11 07:25:35;;;;;;;23.67;13.83;;;;;;;8.26;100.00;94278.19;5111935;28;20280;-79
2023/04/11 07:28:07;;;;;;;19.40;12.30;;;;;;;8.22;99.51;94271.88;5112698;28;20552;-79
2023/04/11 07:30:34;;;;;;;22.27;12.87;;;;;;;8.28;99.96;94271.81;5112035;28;20188;-78
2023/04/11 07:33:01;;;;;;;18.33;12.03;;;;;;;8.39;100.00;94267.75;5120920;27;20191;-77
2023/04/11 07:35:28;;;;;;;20.43;12.47;;;;;;;8.44;99.51;94265.31;5119544;27;20211;-79
2023/04/11 07:37:56;;;;;;;18.37;12.43;;;;;;;8.51;99.24;94269.41;5110534;28;20255;-77
2023/04/11 07:40:23;;;;;;;18.60;12.43;;;;;;;8.58;98.81;94256.41;5108852;28;20257;-77
2023/04/11 07:42:51;;;;;;;19.00;12.10;;;;;;;8.55;98.08;94262.81;5112440;28;20189;-77
2023/04/11 07:45:18;;;;;;;17.07;11.07;;;;;;;8.49;97.61;94253.31;5112006;28;20216;-77
2023/04/11 07:47:44;;;;;;;16.33;11.70;;;;;;;8.40;98.23;94254.59;5111855;28;20580;-77
2023/04/11 07:50:11;;;;;;;19.30;12.03;;;;;;;8.30;99.56;94258.69;5109483;28;20228;-78
2023/04/11 07:52:38;;;;;;;17.83;11.80;;;;;;;8.32;100.00;94252.28;5111492;28;20196;-77
2023/04/11 07:55:06;;;;;;;18.73;12.87;;;;;;;8.44;99.98;94249.78;5111166;28;20552;-77
2023/04/11 07:57:33;;;;;;;18.83;11.70;;;;;;;8.60;98.05;94256.97;5111173;28;20188;-76
2023/04/11 08:00:03;;;;;;;18.17;11.70;;;;;;;8.58;97.59;94209.78;5108754;28;20196;-78
2023/04/11 08:02:31;;;;;;;17.13;10.97;;;;;;;8.85;95.83;94241.38;5111580;28;20189;-76
2023/04/11 08:04:58;;;;;;;15.77;10.77;;;;;;;8.90;96.64;94242.31;5108984;28;20265;-77
2023/04/11 08:07:25;;;;;;;16.07;11.20;;;;;;;8.94;95.90;94240.88;5112344;28;20192;-76
2023/04/11 08:09:53;;;;;;;15.37;10.33;;;;;;;9.06;93.71;94236.50;5100110;28;20284;-76
2023/04/11 08:12:21;;;;;;;13.27;9.47;;;;;;;8.96;93.25;94220.69;5110624;28;20196;-75
2023/04/11 08:14:48;;;;;;;16.00;10.17;;;;;;;9.02;93.44;94221.63;5107368;28;20212;-77
2023/04/11 08:17:16;;;;;;;20.53;11.57;;;;;;;9.13;94.27;94220.88;5108381;28;20272;-76
2023/04/11 08:19:43;;;;;;;13.87;10.23;;;;;;;9.11;92.93;94208.16;5111775;28;20252;-78
2023/04/11 08:22:10;;;;;;;13.80;9.93;;;;;;;9.31;92.36;94220.84;5109334;28;20184;-76
2023/04/11 08:24:37;;;;;;;15.10;10.47;;;;;;;9.47;92.45;94222.81;5110504;28;20773;-76
2023/04/11 08:27:09;;;;;;;18.53;10.03;;;;;;;9.60;90.84;94216.66;5111164;28;20196;-76
2023/04/11 08:29:36;;;;;;;15.13;9.90;;;;;;;9.65;89.89;94217.56;5108974;28;20188;-76
2023/04/11 08:32:04;;;;;;;12.63;9.70;;;;;;;9.76;89.08;94221.19;5109591;28;20189;-76
2023/04/11 08:34:33;;;;;;;17.10;10.30;;;;;;;9.66;87.81;94215.75;5111204;28;20203;-76
2023/04/11 08:37:00;;;;;;;15.33;9.47;;;;;;;9.63;88.36;94217.00;5110822;28;20192;-76
2023/04/11 08:39:27;;;;;;;15.07;10.13;;;;;;;9.70;88.27;94209.88;5108268;28;20208;-76
2023/04/11 08:41:54;;;;;;;12.87;9.37;;;;;;;9.80;87.72;94209.34;5107953;28;20192;-77
2023/04/11 08:44:21;;;;;;;13.83;9.63;;;;;;;9.92;87.17;94198.97;5110916;28;20579;-77
2023/04/11 08:46:49;;;;;;;13.97;9.93;;;;;;;9.92;86.44;94210.16;5111574;28;20220;-75
2023/04/11 08:49:16;;;;;;;13.87;9.03;;;;;;;9.90;86.21;94199.19;5110834;28;20223;-76
2023/04/11 08:51:45;;;;;;;17.07;9.27;;;;;;;9.94;86.85;94192.53;5109145;28;20211;-75
2023/04/11 08:54:12;;;;;;;18.03;12.20;;;;;;;9.99;84.78;94199.66;5107630;28;20654;-77
2023/04/11 08:56:41;;;;;;;21.97;16.07;;;;;;;10.13;86.23;94193.25;5110236;28;20265;-77
2023/04/11 08:59:08;;;;;;;15.63;11.33;;;;;;;10.31;85.93;94187.94;5110340;28;20286;-77
2023/04/11 09:01:36;;;;;;;17.40;10.90;;;;;;;10.51;84.95;94187.56;5108822;28;20685;-76
2023/04/11 09:04:04;;;;;;;12.87;9.77;;;;;;;10.67;84.49;94194.66;5110757;28;20196;-76
2023/04/11 09:06:33;;;;;;;16.63;9.53;;;;;;;10.87;83.54;94192.47;5111019;28;20302;-77
2023/04/11 09:09:04;;;;;;;14.53;9.90;;;;;;;10.91;81.37;94190.97;5110096;28;20195;-77
2023/04/11 09:11:31;;;;;;;18.90;10.10;;;;;;;10.94;81.52;94192.34;5110098;28;20191;-77
2023/04/11 09:14:18;;;;;;;12.80;9.13;;;;;;;11.11;80.64;94186.16;5110669;28;20200;-77
2023/04/11 09:16:54;;;;;;;12.30;9.60;;;;;;;11.18;80.18;94180.81;5109037;28;20192;-76
2023/04/11 09:19:24;;;;;;;15.60;10.60;;;;;;;11.29;79.49;94166.97;5109258;28;20194;-77
2023/04/11 09:21:51;;;;;;;12.53;9.80;;;;;;;11.38;78.83;94168.16;5110018;28;20261;-77
2023/04/11 09:24:19;;;;;;;15.90;10.10;;;;;;;11.45;78.10;94166.22;5110681;28;20200;-77
2023/04/11 09:26:46;;;;;;;13.73;9.83;;;;;;;11.53;79.22;94163.22;5110748;28;20196;-76
2023/04/11 09:29:35;;;;;;;14.60;10.53;;;;;;;11.55;78.09;94160.38;5110675;28;20207;-77
2023/04/11 09:32:02;;;;;;;12.87;9.73;;;;;;;11.49;78.53;94163.91;5110377;28;20328;-76
2023/04/11 09:34:30;;;;;;;16.60;11.07;;;;;;;11.39;78.74;94165.34;5110356;28;20558;-77
2023/04/11 09:36:56;;;;;;;14.30;9.57;;;;;;;11.39;79.43;94154.94;5110328;28;20216;-75
2023/04/11 09:39:28;;;;;;;16.17;11.03;;;;;;;11.40;79.57;94148.69;5109857;28;20199;-78
2023/04/11 09:41:55;;;;;;;15.40;10.83;;;;;;;11.44;79.42;94153.44;5109678;28;20638;-76
2023/04/11 09:44:35;;;;;;;13.93;10.17;;;;;;;11.36;78.64;94147.59;5093590;28;20206;-75
2023/04/11 09:47:02;;;;;;;14.17;10.13;;;;;;;11.50;78.23;94140.28;5109922;28;20274;-76
2023/04/11 09:49:29;;;;;;;15.03;10.43;;;;;;;11.51;78.02;94136.66;5108349;28;20224;-76
2023/04/11 09:51:57;;;;;;;14.50;10.93;;;;;;;11.62;77.95;94129.78;5109385;28;20196;-76
2023/04/11 09:54:27;;;;;;;14.47;10.37;;;;;;;11.66;76.90;94116.06;5106512;28;20212;-75
2023/04/11 09:56:54;;;;;;;15.97;10.57;;;;;;;11.63;77.65;94108.72;5106752;28;20631;-75
2023/04/11 09:59:22;;;;;;;15.73;11.00;;;;;;;11.85;77.20;94121.84;5106340;28;20659;-75
2023/04/11 10:01:50;;;;;;;16.77;12.43;;;;;;;11.92;75.87;94123.25;5109078;28;20215;-76
2023/04/11 10:04:19;;;;;;;17.50;10.70;;;;;;;12.15;75.56;94118.88;5107939;28;20192;-75
2023/04/11 10:07:00;;;;;;;15.33;10.50;;;;;;;12.42;74.16;94107.50;5108972;28;20269;-76
2023/04/11 10:09:30;;;;;;;14.97;10.60;;;;;;;12.57;73.54;94121.75;5100970;28;20675;-76
2023/04/11 10:11:57;;;;;;;17.47;10.77;;;;;;;12.65;72.64;94121.31;5101873;28;20192;-76
2023/04/11 10:14:45;;;;;;;12.13;8.50;;;;;;;12.42;72.36;94112.72;5103452;28;20598;-76
2023/04/11 10:17:15;;;;;;;13.87;9.97;;;;;;;12.60;72.53;94100.41;5099364;28;20200;-77
2023/04/11 10:19:43;;;;;;;12.97;9.33;;;;;;;12.66;72.22;94092.41;5102244;28;20748;-76
2023/04/11 10:22:10;;;;;;;15.83;9.70;;;;;;;12.78;72.29;94094.88;5098948;28;20983;-77
2023/04/11 10:24:38;;;;;;;13.40;9.93;;;;;;;12.96;71.30;94087.50;5096124;28;20196;-78
2023/04/11 10:27:06;;;;;;;15.43;10.33;;;;;;;13.02;71.16;94088.31;5101917;28;20280;-77
2023/04/11 10:29:46;;;;;;;14.47;9.63;;;;;;;13.00;70.32;94087.78;5095441;28;20200;-76
2023/04/11 10:32:19;;;;;;;13.00;9.27;;;;;;;12.89;70.30;94086.91;5103508;28;20192;-76
2023/04/11 10:35:30;;;;;;;17.70;10.57;;;;;;;13.10;69.07;94081.91;5103754;28;20192;-77
2023/04/11 10:37:57;;;;;;;12.60;9.03;;;;;;;13.65;67.80;94075.31;5099994;28;20205;-77
2023/04/11 10:40:25;;;;;;;12.63;8.77;;;;;;;14.01;65.33;94075.53;5104209;28;20253;-76
2023/04/11 10:42:53;;;;;;;12.27;8.33;;;;;;;14.02;63.52;94077.91;5107217;28;20208;-77
2023/04/11 10:45:24;;;;;;;10.77;8.70;;;;;;;14.17;63.97;94064.91;5105383;28;20215;-77
2023/04/11 10:48:04;;;;;;;13.80;9.93;;;;;;;14.63;64.11;94063.28;5107036;28;20229;-77
2023/04/11 10:50:36;;;;;;;14.43;11.07;;;;;;;15.05;63.29;94070.19;5100961;28;21014;-75
2023/04/11 10:53:05;;;;;;;14.43;9.33;;;;;;;15.13;62.22;94057.38;5100401;27;20258;-78
2023/04/11 10:55:44;;;;;;;10.17;7.63;;;;;;;14.74;60.08;94054.44;5103071;27;20208;-77
2023/04/11 10:58:15;;;;;;;11.67;8.33;;;;;;;14.31;61.57;94060.03;5105682;28;20196;-77
2023/04/11 11:01:13;;;;;;;11.37;8.53;;;;;;;14.36;60.43;94049.63;5104217;28;20211;-77
2023/04/11 11:03:52;;;;;;;10.97;8.30;;;;;;;14.73;60.78;94047.63;5097087;28;20207;-77
2023/04/11 11:06:19;;;;;;;12.93;8.37;;;;;;;14.80;61.64;94036.16;5105417;28;20232;-76
2023/04/11 11:08:46;;;;;;;13.10;9.10;;;;;;;14.80;61.34;94041.38;5104858;28;20220;-77
2023/04/11 11:11:16;;;;;;;13.23;8.70;;;;;;;14.73;61.74;94044.22;5102450;28;20804;-77
2023/04/11 11:13:44;;;;;;;12.93;9.50;;;;;;;14.35;61.62;94040.19;5105496;28;20915;-76
2023/04/11 11:16:18;;;;;;;11.67;8.73;;;;;;;13.62;63.18;94030.66;5106476;28;20324;-77
2023/04/11 11:18:49;;;;;;;12.97;9.63;;;;;;;13.33;64.41;94019.72;5105081;28;20204;-79
2023/04/11 11:21:19;;;;;;;13.70;8.60;;;;;;;13.19;64.76;94033.47;5104678;28;20287;-76
2023/04/11 11:24:03;;;;;;;14.27;9.03;;;;;;;12.84;66.68;93992.97;5104627;28;20192;-75